Time;durP1;ratioP1;P1;durP2;ratioP2;P2;SDS_P1;SDS_P2;PMS_P1;PMS_P2;Temp;Humidity;BMP_temperature;BMP_pressure;BME280_temperature;BME280_humidity;BME280_pressure;Samples;Min_cycle;Max_cycle;Signal;HPM_P1;HPM_P2
2021/11/12 08:01:37;;;;;;;16.08;8.52;;;;;;;10.03;50.17;101523.22;4933378;28;20078;-86
2021/11/12 08:04:29;;;;;;;15.55;8.05;;;;;;;10.04;49.32;101527.69;4916699;29;20083;-85
2021/11/12 08:07:11;;;;;;;15.93;9.27;;;;;;;10.12;49.41;101524.56;4902856;29;20055;-85
2021/11/12 08:12:22;;;;;;;14.77;9.25;;;;;;;10.16;49.50;101516.16;4899228;29;20049;-86
2021/11/12 08:15:28;;;;;;;15.00;9.35;;;;;;;10.21;49.88;101500.50;4882862;29;20053;-86
2021/11/12 08:51:21;;;;;;;12.18;8.07;;;;;;;10.30;49.52;101543.44;4825294;29;20057;-87
2021/11/12 08:54:34;;;;;;;;;;;;;;;;;;;;;
2021/11/12 09:04:20;;;;;;;14.48;8.32;;;;;;;10.40;49.46;101515.78;4851648;29;20045;-87
2021/11/12 09:09:39;;;;;;;12.70;7.60;;;;;;;10.41;49.47;101513.00;4992229;23;20507;-70
2021/11/12 09:12:09;;;;;;;14.55;8.95;;;;;;;10.45;49.06;101509.16;4982104;28;20129;-71
2021/11/12 09:14:40;;;;;;;16.25;9.43;;;;;;;10.47;49.18;101500.91;4985012;28;20316;-70
2021/11/12 09:17:08;;;;;;;16.00;9.57;;;;;;;10.45;49.33;101502.84;4982358;28;20456;-70
2021/11/12 09:22:34;;;;;;;14.43;9.23;;;;;;;10.48;49.28;101524.38;4971168;28;20570;-70
2021/11/12 09:25:01;;;;;;;15.40;8.35;;;;;;;10.51;49.40;101522.38;4977368;28;20093;-70
2021/11/12 09:27:28;;;;;;;15.35;8.68;;;;;;;10.53;49.28;101525.91;4985772;28;20104;-69
2021/11/12 09:29:55;;;;;;;15.07;8.68;;;;;;;10.55;49.38;101523.94;4966310;28;20050;-69
2021/11/12 09:32:22;;;;;;;15.00;9.27;;;;;;;10.58;49.18;101520.19;4980671;28;20508;-69
2021/11/12 09:34:49;;;;;;;15.35;9.07;;;;;;;10.59;49.04;101522.81;4982076;28;20081;-69
2021/11/12 09:37:21;;;;;;;16.02;9.13;;;;;;;10.62;49.11;101521.78;4981635;28;20159;-69
2021/11/12 09:39:54;;;;;;;15.15;8.90;;;;;;;10.61;49.18;101520.91;4984687;28;20078;-69
2021/11/12 09:42:26;;;;;;;16.08;9.75;;;;;;;10.63;49.52;101508.09;4985800;28;20054;-69
2021/11/12 09:44:54;;;;;;;15.80;9.18;;;;;;;10.61;49.08;101504.63;4981989;28;20057;-68
2021/11/12 09:47:26;;;;;;;15.48;8.98;;;;;;;10.64;49.08;101500.81;4977861;28;20081;-70
2021/11/12 09:50:00;;;;;;;14.27;8.00;;;;;;;10.67;49.80;101501.53;4973924;28;20054;-68
2021/11/12 09:52:30;;;;;;;15.40;9.27;;;;;;;10.66;49.29;101499.78;4982666;28;20435;-68
2021/11/12 09:54:58;;;;;;;15.00;9.43;;;;;;;10.67;49.24;101490.69;5001344;28;20120;-68
2021/11/12 09:57:25;;;;;;;16.48;9.57;;;;;;;10.68;49.46;101468.00;4999787;28;20046;-68
2021/11/12 09:59:56;;;;;;;16.10;9.23;;;;;;;10.73;49.28;101466.84;4983094;28;20108;-68
2021/11/12 10:02:26;;;;;;;14.77;9.48;;;;;;;10.73;49.02;101458.69;5003437;28;20165;-69
2021/11/12 10:04:53;;;;;;;14.20;9.15;;;;;;;10.72;49.04;101463.25;4979183;28;20073;-68
2021/11/12 10:07:22;;;;;;;16.15;9.45;;;;;;;10.74;49.38;101453.19;4998521;28;20108;-68
2021/11/12 10:10:05;;;;;;;17.23;10.18;;;;;;;10.75;49.11;101437.75;5001149;28;20374;-68
2021/11/12 10:12:37;;;;;;;13.73;8.63;;;;;;;10.72;49.16;101436.09;4999859;28;20061;-68
2021/11/12 10:15:16;;;;;;;15.10;9.63;;;;;;;10.73;49.43;101421.53;5002574;28;20049;-68
2021/11/12 10:17:44;;;;;;;16.25;9.07;;;;;;;10.72;49.22;101424.34;5005176;28;20045;-68
2021/11/12 10:20:16;;;;;;;13.80;8.75;;;;;;;10.74;49.12;101419.72;4998017;28;20066;-69
2021/11/12 10:22:46;;;;;;;16.42;10.10;;;;;;;10.73;49.25;101415.22;4995802;28;20114;-68
2021/11/12 10:25:15;;;;;;;17.75;10.80;;;;;;;10.72;49.17;101405.34;5002021;28;20160;-68
2021/11/12 10:27:49;;;;;;;17.63;10.43;;;;;;;10.73;49.24;101407.09;5002697;28;20081;-68
2021/11/12 10:30:22;;;;;;;17.88;10.38;;;;;;;10.73;49.03;101404.38;5002074;28;20045;-68
2021/11/12 10:32:54;;;;;;;15.45;9.50;;;;;;;10.73;49.32;101397.09;5004878;28;20526;-68
2021/11/12 10:35:24;;;;;;;12.50;8.70;;;;;;;10.74;49.43;101404.28;5006746;28;20100;-68
2021/11/12 10:37:51;;;;;;;15.32;9.98;;;;;;;10.75;49.20;101402.44;4986892;28;20168;-68
2021/11/12 10:40:21;;;;;;;15.52;9.70;;;;;;;10.78;49.55;101388.69;4985348;28;20081;-68
2021/11/12 10:42:57;;;;;;;13.35;9.32;;;;;;;10.81;49.26;101393.94;5007410;28;20050;-68
2021/11/12 10:45:29;;;;;;;14.25;8.90;;;;;;;10.83;49.53;101383.84;5004354;28;20081;-69
2021/11/12 10:48:09;;;;;;;12.70;8.38;;;;;;;10.86;49.78;101392.72;4990269;28;20203;-69
2021/11/12 10:50:38;;;;;;;14.25;8.45;;;;;;;10.90;49.63;101396.97;4986665;28;20464;-69
2021/11/12 10:53:11;;;;;;;14.48;9.05;;;;;;;10.94;49.83;101378.66;4997022;28;20056;-70
2021/11/12 10:55:39;;;;;;;12.40;8.48;;;;;;;10.98;49.42;101359.38;5000900;28;20115;-69
2021/11/12 10:58:11;;;;;;;15.85;9.82;;;;;;;11.04;49.53;101374.41;5003444;28;20050;-70
2021/11/12 11:00:39;;;;;;;14.95;9.35;;;;;;;11.06;49.72;101367.91;4996637;28;20054;-70
2021/11/12 11:03:09;;;;;;;13.45;9.10;;;;;;;11.12;49.41;101368.53;5005003;28;20461;-69
2021/11/12 11:05:43;;;;;;;14.10;8.57;;;;;;;11.17;49.54;101360.97;5007074;28;20410;-69
2021/11/12 11:08:20;;;;;;;15.25;9.15;;;;;;;11.22;49.80;101364.25;5007709;28;20133;-69
2021/11/12 11:10:53;;;;;;;14.98;8.70;;;;;;;11.26;49.51;101363.13;5006171;28;20046;-70
2021/11/12 11:13:23;;;;;;;13.63;8.75;;;;;;;11.30;49.32;101361.94;4997585;28;20085;-68
2021/11/12 11:15:57;;;;;;;10.85;7.18;;;;;;;11.37;49.80;101366.03;4999159;28;20494;-68
2021/11/12 11:18:27;;;;;;;14.23;8.52;;;;;;;11.42;49.80;101358.47;5003343;28;20046;-68
2021/11/12 11:23:51;;;;;;;13.35;8.75;;;;;;;11.59;49.60;101354.72;5003961;28;20082;-68
2021/11/12 11:26:26;;;;;;;13.10;8.45;;;;;;;11.68;50.16;101335.97;5005620;28;20065;-68
2021/11/12 11:28:58;;;;;;;12.18;8.30;;;;;;;11.78;50.07;101338.97;5004639;28;20466;-69
2021/11/12 11:31:29;;;;;;;12.50;8.50;;;;;;;11.87;49.84;101352.00;5005203;28;20050;-69
2021/11/12 11:33:56;;;;;;;12.13;7.75;;;;;;;11.96;50.13;101343.25;5006222;28;20143;-69
2021/11/12 11:36:26;;;;;;;11.02;7.78;;;;;;;12.10;49.76;101350.53;5005775;28;20144;-69
2021/11/12 11:38:54;;;;;;;11.68;7.32;;;;;;;12.19;49.72;101345.31;5005450;28;20551;-69
2021/11/12 11:41:23;;;;;;;13.43;8.43;;;;;;;12.30;49.83;101332.84;5005799;28;20137;-69
2021/11/12 11:43:50;;;;;;;12.18;8.02;;;;;;;12.38;49.94;101336.81;5005397;28;20058;-69
2021/11/12 11:46:25;;;;;;;12.57;8.20;;;;;;;12.50;49.19;101322.41;5004555;28;20367;-69
2021/11/12 11:48:52;;;;;;;12.82;8.02;;;;;;;12.58;49.58;101308.25;4980391;28;20105;-69
2021/11/12 11:51:40;;;;;;;12.57;8.45;;;;;;;12.68;48.95;101305.78;5004487;28;20161;-69
2021/11/12 11:54:10;;;;;;;12.57;7.82;;;;;;;12.75;48.99;101301.66;5003827;28;20125;-69
2021/11/12 11:56:42;;;;;;;12.95;7.78;;;;;;;12.84;48.56;101293.72;4988620;28;20428;-69
2021/11/12 11:59:25;;;;;;;11.60;7.45;;;;;;;12.87;49.15;101293.50;5005243;28;20504;-69
2021/11/12 12:02:03;;;;;;;10.70;7.47;;;;;;;12.96;49.31;101286.53;4998122;28;20573;-69
2021/11/12 12:04:32;;;;;;;13.50;8.60;;;;;;;13.05;48.29;101283.16;4993181;28;20101;-69
2021/11/12 12:07:02;;;;;;;11.63;7.57;;;;;;;13.12;48.21;101287.19;4982274;28;20047;-69
2021/11/12 12:09:47;;;;;;;10.25;7.25;;;;;;;13.19;47.89;101276.75;4990049;28;20123;-69
2021/11/12 12:12:35;;;;;;;11.65;7.53;;;;;;;13.22;47.72;101279.28;5005294;28;20053;-69
2021/11/12 12:15:04;;;;;;;9.18;6.68;;;;;;;13.30;48.38;101274.16;5004475;28;20054;-69
2021/11/12 12:17:34;;;;;;;12.18;7.80;;;;;;;13.35;48.07;101269.22;4998238;28;20558;-69
2021/11/12 12:20:18;;;;;;;11.48;7.40;;;;;;;13.42;47.82;101273.28;4990976;28;20141;-68
2021/11/12 13:25:09;;;;;;;12.52;7.65;;;;;;;14.19;45.94;101208.41;4996648;28;20085;-69
2021/11/12 13:27:36;;;;;;;10.98;7.43;;;;;;;14.18;46.00;101195.72;4989319;28;20183;-69
2021/11/12 13:30:06;;;;;;;10.20;7.20;;;;;;;14.18;45.77;101188.41;5004834;28;20078;-69
2021/11/12 13:32:38;;;;;;;9.88;7.03;;;;;;;14.18;45.13;101174.75;5000878;28;20096;-69
2021/11/12 13:35:06;;;;;;;13.13;7.83;;;;;;;14.14;45.76;101170.53;5005022;28;20092;-69
2021/11/12 13:37:33;;;;;;;11.75;7.65;;;;;;;14.15;46.03;101165.97;5007136;28;20305;-69
2021/11/12 13:40:04;;;;;;;11.18;7.45;;;;;;;14.16;45.26;101163.13;4987308;28;20103;-69
2021/11/12 13:42:38;;;;;;;10.45;6.93;;;;;;;14.16;45.58;101149.47;5006805;28;20060;-69
2021/11/12 13:45:24;;;;;;;11.73;7.72;;;;;;;14.14;45.23;101151.44;4987460;28;20760;-69
2021/11/12 13:48:12;;;;;;;10.15;7.50;;;;;;;14.12;45.20;101149.78;5004873;28;20137;-69
2021/11/12 13:50:42;;;;;;;10.25;6.80;;;;;;;14.10;45.14;101152.63;5003963;28;20065;-69
2021/11/12 13:53:08;;;;;;;11.23;7.07;;;;;;;14.08;45.49;101144.56;5004459;28;20145;-69
2021/11/12 13:55:38;;;;;;;10.70;6.47;;;;;;;14.08;45.20;101149.19;5004088;28;20085;-69
2021/11/12 13:58:05;;;;;;;11.43;7.07;;;;;;;14.08;45.42;101155.47;5003882;28;20115;-69
2021/11/12 14:00:35;;;;;;;10.93;7.55;;;;;;;14.06;45.47;101152.03;5003758;28;20058;-69
2021/11/12 14:03:07;;;;;;;10.75;7.03;;;;;;;14.08;45.03;101150.03;4987602;28;20141;-69
2021/11/12 14:05:37;;;;;;;11.15;7.03;;;;;;;14.05;45.50;101143.94;4998051;28;20053;-69
2021/11/12 14:08:04;;;;;;;12.25;7.28;;;;;;;14.05;45.50;101149.41;4986411;28;20062;-69
2021/11/12 14:10:44;;;;;;;12.05;6.88;;;;;;;14.07;45.44;101144.69;5000587;28;20088;-69
2021/11/12 14:13:17;;;;;;;10.75;7.50;;;;;;;14.07;45.55;101141.97;5006196;28;20045;-68
2021/11/12 14:21:39;;;;;;;10.32;6.57;;;;;;;14.05;45.68;101127.56;5003787;28;20499;-68
2021/11/12 14:30:06;;;;;;;12.13;7.10;;;;;;;14.06;44.85;101112.94;5003826;28;20480;-68
2021/11/12 14:40:47;;;;;;;9.90;6.72;;;;;;;14.00;45.29;101086.09;5005093;28;20107;-68
2021/11/12 14:45:53;;;;;;;11.20;7.30;;;;;;;13.97;45.39;101080.88;4999278;28;20077;-68
2021/11/12 14:48:28;;;;;;;10.32;7.20;;;;;;;13.94;45.08;101073.78;5005350;28;20046;-68
2021/11/12 14:51:02;;;;;;;11.38;7.72;;;;;;;13.93;44.87;101077.50;5004632;28;20499;-68
2021/11/12 14:59:02;;;;;;;11.02;7.20;;;;;;;13.89;44.67;101064.22;5004433;28;20427;-69
2021/11/12 15:01:31;;;;;;;10.18;6.72;;;;;;;13.85;45.05;101068.16;5000552;28;20080;-68
2021/11/12 15:03:59;;;;;;;10.70;7.05;;;;;;;13.84;44.84;101061.81;5001754;28;20149;-69
2021/11/12 15:06:27;;;;;;;10.48;6.95;;;;;;;13.83;45.23;101051.06;5003959;28;20069;-68
2021/11/12 15:09:11;;;;;;;10.85;6.57;;;;;;;13.83;45.10;101048.31;4993656;28;20149;-69
2021/11/12 15:11:39;;;;;;;10.05;6.90;;;;;;;13.78;45.03;101047.78;5008168;28;20092;-68
2021/11/12 15:14:11;;;;;;;10.65;7.18;;;;;;;13.77;44.94;101048.78;5001372;28;20085;-70
2021/11/12 15:16:57;;;;;;;11.02;6.85;;;;;;;13.74;45.09;101049.03;5006417;28;20049;-69
2021/11/12 15:19:25;;;;;;;11.45;6.55;;;;;;;13.74;45.12;101055.38;4996190;28;20137;-68
2021/11/12 15:24:38;;;;;;;10.20;7.13;;;;;;;13.69;44.96;101044.78;4996702;28;20141;-68
2021/11/12 15:27:52;;;;;;;10.25;6.70;;;;;;;13.69;45.05;101043.91;5003616;28;20053;-68
2021/11/12 15:33:38;;;;;;;9.38;6.60;;;;;;;13.62;44.94;101039.91;4988101;28;20137;-68
2021/11/12 15:35:42;;;;;;;10.68;7.15;;;;;;;13.60;45.24;101041.88;4983084;28;20064;-68
2021/11/12 15:40:49;;;;;;;11.40;7.30;;;;;;;13.56;44.85;101045.84;5002291;28;20072;-69
2021/11/12 15:48:24;;;;;;;12.18;7.57;;;;;;;13.51;44.53;101043.44;5002157;28;20050;-70
2021/11/12 15:53:27;;;;;;;10.48;6.80;;;;;;;13.46;44.50;101040.22;5003619;28;20539;-68
2021/11/12 16:03:58;;;;;;;11.48;7.00;;;;;;;13.38;44.77;101050.84;4998492;28;20065;-68
2021/11/12 16:27:11;;;;;;;10.95;7.57;;;;;;;13.17;44.92;101050.59;5002892;28;20462;-70
2021/11/12 16:29:40;;;;;;;10.77;7.03;;;;;;;13.16;44.73;101043.41;4988511;28;20073;-69
2021/11/12 16:32:11;;;;;;;11.35;7.43;;;;;;;13.15;44.90;101036.22;5009671;28;20419;-70
2021/11/12 16:34:43;;;;;;;9.93;6.50;;;;;;;13.12;44.99;101038.25;5004054;28;20077;-71
2021/11/12 16:37:11;;;;;;;10.65;7.32;;;;;;;13.07;44.81;101029.56;5001573;28;20314;-68
2021/11/12 16:39:52;;;;;;;11.98;6.90;;;;;;;13.09;45.01;101033.03;5005409;28;20511;-68
2021/11/12 16:48:13;;;;;;;9.75;6.40;;;;;;;13.00;44.84;101026.41;5000868;28;20034;-68
2021/11/12 16:58:47;;;;;;;11.30;7.53;;;;;;;12.91;44.78;101022.53;4972391;28;20444;-70
2021/11/12 17:45:09;;;;;;;18.23;9.20;;;;;;;12.53;45.03;100967.25;4970962;28;20062;-71
2021/11/12 17:47:42;;;;;;;14.88;8.23;;;;;;;12.54;45.26;100972.56;4971628;28;20125;-71
2021/11/12 18:22:59;;;;;;;13.85;7.60;;;;;;;12.27;45.17;100965.56;4970456;28;20050;-71
2021/11/12 21:48:41;;;;;;;13.15;9.38;;;;;;;11.86;46.27;100938.59;4960144;28;20847;-71
2021/11/12 21:54:06;;;;;;;12.48;7.88;;;;;;;11.87;46.05;100926.69;4944672;28;20129;-72
2021/11/12 21:56:36;;;;;;;12.65;8.23;;;;;;;11.89;46.25;100930.19;4970294;28;20042;-70
2021/11/12 21:59:04;;;;;;;11.90;7.65;;;;;;;11.91;45.90;100925.50;4966740;28;20065;-69
2021/11/12 22:01:31;;;;;;;13.35;9.02;;;;;;;11.93;46.00;100920.84;4966112;28;20474;-69
2021/11/12 22:04:01;;;;;;;21.75;12.88;;;;;;;11.93;46.29;100910.84;4967346;28;20515;-72
2021/11/12 22:06:30;;;;;;;12.80;9.38;;;;;;;11.93;46.25;100916.28;4966515;28;20223;-70
2021/11/12 22:08:57;;;;;;;15.98;10.23;;;;;;;11.94;45.79;100919.88;4958952;28;20114;-70
2021/11/12 22:11:23;;;;;;;13.45;8.93;;;;;;;11.93;46.07;100916.28;4964635;28;20571;-69
2021/11/12 22:13:50;;;;;;;11.52;7.45;;;;;;;11.92;45.83;100909.09;4959490;28;20126;-69
2021/11/12 22:16:19;;;;;;;11.45;7.80;;;;;;;11.93;45.87;100908.13;4966440;28;20078;-71
2021/11/12 22:18:46;;;;;;;12.38;7.63;;;;;;;11.93;46.33;100913.56;4966348;28;20059;-69
2021/11/12 22:21:14;;;;;;;11.02;7.15;;;;;;;11.93;46.16;100905.41;4968754;28;20505;-69
2021/11/12 22:23:40;;;;;;;11.82;7.95;;;;;;;11.94;46.29;100900.81;4956944;28;20132;-70
2021/11/12 22:26:11;;;;;;;13.07;7.90;;;;;;;11.95;46.32;100902.53;4965457;28;20050;-70
2021/11/12 22:28:38;;;;;;;12.27;8.10;;;;;;;11.95;46.40;100900.69;4966643;28;20078;-70
2021/11/12 22:31:05;;;;;;;12.38;8.57;;;;;;;11.95;46.14;100889.81;4968527;28;20078;-71
2021/11/12 22:33:32;;;;;;;14.57;8.80;;;;;;;11.96;46.58;100893.41;4961665;28;20055;-70
2021/11/12 22:35:59;;;;;;;12.30;8.23;;;;;;;11.95;46.61;100884.38;4963001;28;20051;-72
2021/11/12 22:38:26;;;;;;;12.80;7.38;;;;;;;11.96;46.57;100879.78;4965944;28;20471;-69
2021/11/12 22:40:53;;;;;;;12.10;7.65;;;;;;;11.96;46.59;100883.38;4968459;28;20141;-70
2021/11/12 22:43:23;;;;;;;10.48;7.00;;;;;;;11.98;46.55;100883.28;4967655;28;20090;-69
2021/11/12 22:45:50;;;;;;;10.70;7.72;;;;;;;11.95;46.40;100883.50;4944148;28;20047;-72
2021/11/12 22:48:17;;;;;;;10.10;6.97;;;;;;;11.93;46.17;100886.34;4968043;28;20736;-71
2021/11/12 22:50:47;;;;;;;10.80;7.22;;;;;;;11.93;46.43;100880.91;4967265;28;20054;-72
2021/11/12 22:53:13;;;;;;;11.75;6.95;;;;;;;11.91;46.39;100893.75;4967725;28;20065;-71
2021/11/12 22:55:40;;;;;;;11.45;7.20;;;;;;;11.87;46.11;100870.44;4965470;28;20094;-70
2021/11/12 22:58:07;;;;;;;10.65;7.15;;;;;;;11.87;46.44;100867.72;4967539;28;20129;-72
2021/11/12 23:00:59;;;;;;;10.23;6.88;;;;;;;11.87;46.50;100866.84;4968625;28;20129;-71
2021/11/12 23:03:26;;;;;;;9.68;6.30;;;;;;;11.81;46.31;100855.44;4969824;28;20089;-71
2021/11/12 23:05:53;;;;;;;11.82;7.65;;;;;;;11.79;46.06;100859.25;4970297;28;20468;-71
2021/11/12 23:08:19;;;;;;;10.05;6.55;;;;;;;11.77;46.37;100859.38;4969239;28;20085;-74
2021/11/12 23:10:46;;;;;;;10.35;6.80;;;;;;;11.74;46.18;100848.72;4960658;28;20055;-74
2021/11/12 23:13:12;;;;;;;10.85;7.32;;;;;;;11.71;46.37;100845.28;4967096;28;20079;-73
2021/11/12 23:15:40;;;;;;;10.25;6.78;;;;;;;11.66;46.33;100836.59;4966408;28;20130;-74
2021/11/12 23:18:06;;;;;;;10.88;7.28;;;;;;;11.64;46.24;100839.44;4967918;28;20160;-74
2021/11/12 23:20:34;;;;;;;11.68;7.22;;;;;;;11.61;46.29;100842.34;4966612;28;20135;-73
2021/11/12 23:23:01;;;;;;;9.10;6.53;;;;;;;11.59;46.26;100829.88;4967315;28;20054;-71
2021/11/12 23:25:27;;;;;;;9.23;6.43;;;;;;;11.56;46.50;100817.34;4967768;28;20138;-68
2021/11/12 23:27:54;;;;;;;11.52;6.85;;;;;;;11.54;46.44;100819.31;4967204;28;20736;-70
2021/11/12 23:30:20;;;;;;;10.45;6.93;;;;;;;11.53;46.53;100816.72;4965335;28;20137;-69
2021/11/12 23:32:47;;;;;;;9.77;6.25;;;;;;;11.51;46.45;100826.81;4955377;28;20138;-68
2021/11/12 23:35:14;;;;;;;11.25;6.95;;;;;;;11.49;46.57;100848.69;4971269;28;20133;-69
2021/11/12 23:37:40;;;;;;;11.30;7.38;;;;;;;11.48;46.50;100846.94;4971323;28;20414;-70
2021/11/12 23:40:09;;;;;;;11.32;7.28;;;;;;;11.48;46.60;100846.06;4970069;28;20087;-69
2021/11/12 23:42:36;;;;;;;10.73;6.88;;;;;;;11.45;46.48;100850.72;4971862;28;20050;-70
2021/11/12 23:45:03;;;;;;;9.93;6.63;;;;;;;11.47;46.83;100849.75;4971400;28;20090;-69
2021/11/12 23:47:30;;;;;;;11.45;6.95;;;;;;;11.45;46.42;100856.16;4971251;28;20098;-69
2021/11/12 23:49:57;;;;;;;11.13;7.57;;;;;;;11.45;46.70;100850.72;4969687;28;20126;-70
2021/11/12 23:52:23;;;;;;;12.02;7.13;;;;;;;11.46;46.82;100838.00;4971074;28;20528;-70
2021/11/12 23:54:51;;;;;;;11.50;7.05;;;;;;;11.45;46.60;100848.00;4971141;28;20121;-70
2021/11/12 23:57:17;;;;;;;10.88;7.60;;;;;;;11.44;46.54;100840.88;4971033;28;20138;-69
2021/11/12 23:59:44;;;;;;;9.85;6.65;;;;;;;11.43;46.49;100844.56;4970490;28;20121;-70
